Fine, New York
Current Conditions -  °F | °C
As of 10:58 AM on Sunday 23 Nov 2014 (Local Time) from KGTB Reporting Station
Overcast Overcast  
Wind Chill: 38°   Ceiling: 2000
Heat Index: 43°   Visibility: 10mi
Dew Point: 40°   Wind: 8mph
Humidity: 91%   Direction: 210°SSW
Pressure: 30.03"   Gusts: NA
Location:  44.25°N, 75.14°W
Report Text: KGTB 231558Z AUTO 21007KT 10SM OVC020 06/05 A3003 RMK AO2 SLP174 T00600046
Loading
Personal Weather Stations






























Interactive Weather Map New forecast layout! Learn more

10-Day Weather Forecast

Advertisements
Track Severe Weather on mobile